Time;durP1;ratioP1;P1;durP2;ratioP2;P2;SDS_P1;SDS_P2;PMS_P1;PMS_P2;Temp;Humidity;BMP_temperature;BMP_pressure;BME280_temperature;BME280_humidity;BME280_pressure;Samples;Min_cycle;Max_cycle;Signal;HPM_P1;HPM_P2
2021/10/04 00:05:16;;;;;;;12.60;8.10;;;;;;;10.33;72.45;99457.02;464265;1192;141788;-61
2021/10/04 00:15:29;;;;;;;11.30;9.10;;;;;;;10.31;72.61;99463.79;460956;1192;140522;-62
2021/10/04 00:25:35;;;;;;;10.60;9.00;;;;;;;10.27;72.64;99461.23;462393;1191;142393;-62
2021/10/04 00:35:41;;;;;;;10.60;8.80;;;;;;;10.23;72.91;99468.70;465346;1192;141652;-63
2021/10/04 00:45:46;;;;;;;11.20;9.10;;;;;;;10.17;73.00;99469.41;463230;1192;141119;-62
2021/10/04 00:55:52;;;;;;;10.10;9.00;;;;;;;10.10;73.18;99464.79;466116;1191;141001;-63
2021/10/04 01:05:59;;;;;;;12.50;9.00;;;;;;;10.02;73.23;99460.89;470992;1192;141874;-63
2021/10/04 01:16:05;;;;;;;28.40;9.90;;;;;;;9.98;73.44;99455.89;465865;1192;141351;-61
2021/10/04 01:26:12;;;;;;;12.90;8.30;;;;;;;9.96;73.60;99452.17;465682;1193;141490;-61
2021/10/04 01:36:20;;;;;;;10.90;9.80;;;;;;;9.94;73.62;99458.61;464516;1192;140531;-63
2021/10/04 01:46:25;;;;;;;12.80;9.70;;;;;;;9.91;73.97;99460.20;462126;1192;141935;-63
2021/10/04 01:56:31;;;;;;;15.50;10.10;;;;;;;9.86;74.09;99458.64;470301;1192;195455;-63
2021/10/04 02:06:37;;;;;;;10.70;9.60;;;;;;;9.82;74.36;99464.60;467935;1192;141863;-62
2021/10/04 02:16:43;;;;;;;11.00;8.90;;;;;;;9.82;74.40;99466.19;469453;1193;142161;-63
2021/10/04 02:26:49;;;;;;;11.50;9.30;;;;;;;9.80;74.34;99467.34;466425;1192;142414;-62
2021/10/04 02:36:55;;;;;;;13.40;9.70;;;;;;;9.78;74.65;99468.02;477182;1191;141808;-64
2021/10/04 02:47:03;;;;;;;12.80;9.50;;;;;;;9.78;74.69;99466.58;467596;1178;141754;-62
2021/10/04 02:57:09;;;;;;;12.70;10.60;;;;;;;9.77;74.78;99462.83;472207;1191;142824;-62
2021/10/04 03:07:15;;;;;;;13.70;9.30;;;;;;;9.77;74.89;99466.70;465001;1192;141986;-62
2021/10/04 03:17:21;;;;;;;14.10;9.40;;;;;;;9.72;74.91;99480.10;462791;1179;145087;-63
2021/10/04 03:27:27;;;;;;;11.00;8.90;;;;;;;9.68;75.07;99475.75;461412;1193;142296;-62
2021/10/04 03:37:33;;;;;;;11.70;9.60;;;;;;;9.65;75.24;99479.83;461687;1192;141087;-62
2021/10/04 03:47:39;;;;;;;12.70;10.20;;;;;;;9.58;75.19;99487.59;463645;1192;140590;-62
2021/10/04 03:57:46;;;;;;;11.50;10.30;;;;;;;9.50;75.23;99488.60;462192;1192;142602;-63
2021/10/04 04:07:52;;;;;;;11.90;10.00;;;;;;;9.46;75.41;99485.86;464737;1192;140662;-63
2021/10/04 04:17:58;;;;;;;12.90;9.60;;;;;;;9.44;75.61;99484.63;462440;1193;141606;-62
2021/10/04 04:28:04;;;;;;;9.80;8.60;;;;;;;9.38;75.48;99483.34;461158;1192;141204;-62
2021/10/04 04:38:10;;;;;;;12.00;9.40;;;;;;;9.34;75.75;99478.57;476038;1192;141619;-61
2021/10/04 04:48:16;;;;;;;11.80;9.30;;;;;;;9.34;75.74;99487.59;477054;1186;141651;-63
2021/10/04 04:58:22;;;;;;;15.30;10.60;;;;;;;9.40;75.69;99488.52;476708;1191;141711;-64
2021/10/04 05:08:28;;;;;;;12.10;9.70;;;;;;;9.50;75.57;99500.65;476033;1192;144681;-63
2021/10/04 05:18:37;;;;;;;13.10;11.20;;;;;;;9.67;75.48;99501.34;476828;1192;142784;-63
2021/10/04 05:28:43;;;;;;;12.50;10.40;;;;;;;9.91;75.02;99501.66;473825;1192;141592;-61
2021/10/04 05:38:49;;;;;;;13.00;11.50;;;;;;;10.42;74.68;99499.14;467583;1192;142257;-63
2021/10/04 05:48:55;;;;;;;8.40;7.30;;;;;;;12.96;73.01;99509.00;476872;1191;140985;-66
2021/10/04 05:59:01;;;;;;;8.50;7.40;;;;;;;17.75;67.06;99511.75;476787;1192;142486;-65
2021/10/04 06:09:07;;;;;;;10.50;6.70;;;;;;;21.44;60.21;99517.64;475866;1192;142458;-66
2021/10/04 06:19:13;;;;;;;7.40;6.70;;;;;;;24.16;54.78;99520.30;475178;1187;141308;-62
2021/10/04 06:29:19;;;;;;;6.90;6.10;;;;;;;26.30;49.82;99518.02;474607;1192;140083;-64
2021/10/04 06:39:24;;;;;;;8.60;7.70;;;;;;;27.87;45.87;99523.58;462833;1191;139639;-63
2021/10/04 06:49:30;;;;;;;7.80;7.10;;;;;;;29.30;42.57;99517.06;477204;1191;140151;-65
2021/10/04 06:59:36;;;;;;;11.20;8.00;;;;;;;31.16;39.48;99519.92;461749;1192;141874;-65
2021/10/04 07:09:42;;;;;;;8.40;6.10;;;;;;;32.51;36.64;99527.08;472572;1192;142240;-64
2021/10/04 07:19:48;;;;;;;8.50;6.20;;;;;;;33.84;34.57;99537.23;476769;1192;140485;-65
2021/10/04 07:29:54;;;;;;;7.50;5.90;;;;;;;35.63;32.30;99539.67;477076;1190;141715;-74
2021/10/04 07:40:01;;;;;;;10.80;6.30;;;;;;;36.57;30.35;99548.14;471058;1191;140079;-74
2021/10/04 07:50:10;;;;;;;6.20;5.60;;;;;;;37.66;28.95;99556.70;463135;1192;140438;-75
2021/10/04 08:00:18;;;;;;;8.10;5.40;;;;;;;38.80;27.41;99550.29;477467;1190;139391;-71
2021/10/04 08:10:25;;;;;;;6.10;5.20;;;;;;;39.65;26.21;99544.33;475619;1190;139905;-68
2021/10/04 08:20:31;;;;;;;7.40;6.00;;;;;;;40.08;24.96;99548.04;476136;1190;140681;-65
2021/10/04 08:30:37;;;;;;;4.60;4.10;;;;;;;40.96;24.27;99549.21;477881;1190;140965;-61
2021/10/04 08:40:43;;;;;;;8.00;4.90;;;;;;;41.72;22.99;99547.64;470775;1190;140623;-64
2021/10/04 08:50:49;;;;;;;5.60;4.90;;;;;;;41.73;22.40;99543.63;477133;1190;141522;-65
2021/10/04 09:00:55;;;;;;;7.10;4.80;;;;;;;39.03;22.71;99528.47;467177;1190;140667;-58
2021/10/04 09:11:12;;;;;;;5.90;5.00;;;;;;;32.69;26.30;99523.50;467074;1190;142166;-58
2021/10/04 09:21:18;;;;;;;7.50;6.20;;;;;;;28.57;29.95;99520.23;472563;1191;140593;-58
2021/10/04 09:31:27;;;;;;;6.10;5.10;;;;;;;26.29;33.11;99516.39;477844;1190;140209;-59
2021/10/04 09:41:33;;;;;;;6.10;5.10;;;;;;;24.78;35.24;99511.68;467748;1192;140292;-61
2021/10/04 09:51:54;;;;;;;13.60;6.20;;;;;;;23.50;37.56;99516.58;473666;1190;141747;-62
2021/10/04 10:02:00;;;;;;;6.40;5.60;;;;;;;22.70;39.45;99522.53;466855;1190;140096;-66
2021/10/04 10:12:09;;;;;;;6.50;5.90;;;;;;;22.22;41.21;99526.59;462293;1192;140328;-68
2021/10/04 10:22:19;;;;;;;13.80;6.50;;;;;;;22.11;41.87;99530.79;470383;1190;140365;-65
2021/10/04 10:32:35;;;;;;;8.30;5.80;;;;;;;21.71;42.82;99541.84;472559;1190;139731;-66
2021/10/04 10:42:59;;;;;;;8.90;6.80;;;;;;;21.59;43.69;99545.20;475010;1191;144670;-63
2021/10/04 10:53:16;;;;;;;8.00;6.90;;;;;;;21.49;44.47;99550.25;477935;1190;139489;-68
2021/10/04 11:03:23;;;;;;;9.40;7.00;;;;;;;21.19;45.23;99549.36;467389;1176;140923;-67
2021/10/04 11:13:32;;;;;;;11.50;7.10;;;;;;;21.14;45.90;99545.13;461187;1192;139890;-65
2021/10/04 11:23:42;;;;;;;7.60;6.80;;;;;;;21.09;46.45;99546.41;477133;1190;140594;-65
2021/10/04 11:33:52;;;;;;;7.90;7.10;;;;;;;21.02;47.14;99544.31;471967;1191;140337;-67
2021/10/04 11:44:00;;;;;;;7.80;5.90;;;;;;;21.20;47.16;99545.88;469519;1190;140630;-61
2021/10/04 11:54:06;;;;;;;7.10;5.90;;;;;;;21.33;47.16;99544.66;473686;1190;140704;-59
2021/10/04 12:04:16;;;;;;;12.50;6.70;;;;;;;21.40;47.39;99547.73;477708;1191;142598;-59
2021/10/04 12:14:23;;;;;;;5.00;4.50;;;;;;;21.50;47.47;99539.22;477068;1190;141944;-61
2021/10/04 12:24:32;;;;;;;10.00;6.10;;;;;;;21.50;47.41;99543.41;477395;1190;139746;-60
2021/10/04 12:34:38;;;;;;;7.20;5.20;;;;;;;21.57;47.37;99547.20;477892;1190;140134;-58
2021/10/04 12:44:47;;;;;;;6.80;5.70;;;;;;;21.67;47.45;99546.07;477096;1190;196437;-60
2021/10/04 12:54:54;;;;;;;11.10;6.10;;;;;;;21.77;47.50;99551.02;477255;1192;140729;-69
2021/10/04 13:05:00;;;;;;;8.90;7.70;;;;;;;21.78;47.51;99548.55;468829;1192;140032;-61
2021/10/04 13:15:08;;;;;;;9.40;6.40;;;;;;;21.70;47.76;99550.02;464278;1190;141625;-61
2021/10/04 13:25:15;;;;;;;8.30;5.90;;;;;;;21.63;48.28;99555.95;473234;1191;140798;-60
2021/10/04 13:35:21;;;;;;;7.50;5.60;;;;;;;21.60;48.21;99560.00;476813;1191;141629;-60
2021/10/04 13:45:28;;;;;;;8.50;6.20;;;;;;;21.50;48.67;99560.58;477866;1190;140751;-62
2021/10/04 13:55:34;;;;;;;15.10;6.70;;;;;;;21.51;48.92;99564.69;466081;1190;139555;-64
2021/10/04 14:05:41;;;;;;;8.00;5.80;;;;;;;21.39;49.14;99574.89;471231;1190;141735;-62
2021/10/04 14:15:46;;;;;;;6.70;6.10;;;;;;;21.25;49.49;99570.39;471724;1190;141487;-59
2021/10/04 14:25:52;;;;;;;8.60;6.60;;;;;;;21.23;49.59;99571.69;475150;1191;141072;-61
2021/10/04 14:36:15;;;;;;;11.60;6.80;;;;;;;21.20;49.86;99578.45;466815;1191;140425;-60
2021/10/04 14:46:22;;;;;;;8.30;6.80;;;;;;;21.06;50.38;99586.55;461518;1192;141079;-60
2021/10/04 14:56:29;;;;;;;7.90;6.20;;;;;;;20.89;50.84;99590.14;475835;1190;142302;-62
2021/10/04 15:06:35;;;;;;;7.60;6.20;;;;;;;20.63;51.28;99592.84;477718;1190;140244;-63
2021/10/04 15:16:41;;;;;;;10.80;6.70;;;;;;;20.44;52.01;99599.99;474334;1190;140204;-60
2021/10/04 15:26:48;;;;;;;9.70;7.30;;;;;;;20.22;52.84;99611.29;446814;1190;10139285;-60
2021/10/04 15:36:55;;;;;;;13.10;8.40;;;;;;;20.01;53.67;99613.70;466827;1190;140752;-61
2021/10/04 15:47:01;;;;;;;12.10;8.00;;;;;;;19.78;54.60;99620.80;477476;1191;140812;-62
2021/10/04 15:57:07;;;;;;;13.60;9.30;;;;;;;19.45;55.55;99624.84;473650;1191;140447;-62
2021/10/04 16:07:14;;;;;;;12.50;8.30;;;;;;;19.07;56.91;99634.80;469584;1190;10138359;-63
2021/10/04 16:17:21;;;;;;;19.70;9.80;;;;;;;18.57;58.22;99646.05;476916;1190;141498;-64
2021/10/04 16:27:27;;;;;;;23.20;12.10;;;;;;;18.07;59.25;99655.73;468857;1190;141158;-65
2021/10/04 16:37:33;;;;;;;15.50;9.70;;;;;;;17.59;60.53;99660.45;477729;1190;142639;-63
2021/10/04 16:47:39;;;;;;;23.70;12.30;;;;;;;17.10;61.54;99665.59;467599;1190;142731;-66
2021/10/04 16:57:45;;;;;;;15.80;11.30;;;;;;;16.66;62.56;99669.27;472242;1190;142556;-64
2021/10/04 17:07:51;;;;;;;22.40;14.60;;;;;;;16.29;63.31;99674.75;477053;1191;142028;-68
2021/10/04 17:17:58;;;;;;;28.40;16.60;;;;;;;15.92;64.07;99675.79;465323;1190;142454;-66
2021/10/04 17:28:04;;;;;;;41.10;19.60;;;;;;;15.57;64.67;99683.23;471561;1190;145233;-63
2021/10/04 17:38:10;;;;;;;57.20;35.70;;;;;;;15.23;65.27;99680.73;476893;1190;141651;-62
2021/10/04 17:48:16;;;;;;;28.70;18.50;;;;;;;14.98;66.14;99684.86;477086;1191;141684;-64
2021/10/04 17:58:22;;;;;;;44.90;21.30;;;;;;;14.71;66.32;99684.58;467220;1191;141215;-63
2021/10/04 18:08:29;;;;;;;34.80;22.00;;;;;;;14.42;67.11;99688.89;462462;1190;142745;-62
2021/10/04 18:18:35;;;;;;;40.70;28.40;;;;;;;14.19;67.95;99691.05;476508;1191;143945;-63
2021/10/04 18:28:41;;;;;;;48.50;32.60;;;;;;;14.02;68.04;99700.45;470078;1191;141300;-62
2021/10/04 18:38:47;;;;;;;48.40;31.30;;;;;;;13.78;68.01;99708.90;466553;1190;142930;-63
2021/10/04 18:48:54;;;;;;;64.00;39.00;;;;;;;13.54;68.21;99707.22;462501;1191;142073;-63
2021/10/04 18:59:00;;;;;;;62.50;40.00;;;;;;;13.28;68.67;99715.35;461129;1192;141906;-62
2021/10/04 19:09:06;;;;;;;67.30;38.60;;;;;;;13.03;69.02;99725.31;465718;1177;142096;-63
2021/10/04 19:19:12;;;;;;;57.80;37.70;;;;;;;12.77;69.32;99719.23;469165;1191;152039;-63
2021/10/04 19:29:18;;;;;;;56.70;35.80;;;;;;;12.51;70.01;99720.34;470280;1191;141543;-64
2021/10/04 19:39:24;;;;;;;44.10;27.30;;;;;;;12.38;70.80;99716.34;477574;1190;142724;-66
2021/10/04 19:49:30;;;;;;;46.30;30.00;;;;;;;12.23;70.73;99722.59;477650;1190;141838;-64
2021/10/04 19:59:36;;;;;;;58.90;37.00;;;;;;;12.06;71.12;99715.16;476582;1190;141629;-65
2021/10/04 20:09:44;;;;;;;43.50;30.30;;;;;;;11.92;71.37;99711.84;467967;1191;142215;-65
2021/10/04 20:19:50;;;;;;;52.50;32.90;;;;;;;11.76;71.64;99709.63;471730;1190;141686;-65
2021/10/04 20:29:56;;;;;;;57.80;38.10;;;;;;;11.60;72.30;99709.95;462300;1192;142029;-64
2021/10/04 20:40:02;;;;;;;56.10;36.50;;;;;;;11.54;73.20;99716.84;470121;1190;141904;-64
2021/10/04 20:50:11;;;;;;;48.50;33.60;;;;;;;11.44;73.17;99716.77;475582;1191;142452;-64
2021/10/04 21:00:18;;;;;;;48.40;34.00;;;;;;;11.53;74.62;99710.55;477569;1190;142920;-65
2021/10/04 21:10:24;;;;;;;59.80;43.60;;;;;;;11.68;75.23;99701.71;473799;1190;142808;-64
2021/10/04 21:20:30;;;;;;;54.50;38.90;;;;;;;11.41;73.70;99701.72;461993;1192;141790;-63
2021/10/04 21:30:35;;;;;;;52.10;37.50;;;;;;;11.24;73.87;99698.44;461674;1191;141850;-64
2021/10/04 21:40:42;;;;;;;46.10;32.80;;;;;;;11.06;73.62;99697.60;461707;1192;142163;-63
2021/10/04 21:50:48;;;;;;;41.10;32.50;;;;;;;11.00;74.57;99703.67;461212;1190;145556;-61
2021/10/04 22:11:18;;;;;;;51.90;40.40;;;;;;;11.09;76.82;99704.47;461196;1191;142657;-64
2021/10/04 22:21:23;;;;;;;34.70;30.00;;;;;;;11.29;77.74;99702.13;476970;1190;143123;-63
2021/10/04 22:31:29;;;;;;;45.60;38.00;;;;;;;11.15;77.38;99700.04;464718;1190;141134;-64
2021/10/04 22:41:36;;;;;;;44.90;37.50;;;;;;;11.28;78.49;99698.69;475924;1190;143403;-64
2021/10/04 22:51:43;;;;;;;51.50;40.00;;;;;;;11.28;78.71;99695.16;463718;1190;142372;-65
2021/10/04 23:01:49;;;;;;;44.20;36.20;;;;;;;11.36;79.20;99697.33;477789;1190;141201;-64
2021/10/04 23:11:56;;;;;;;49.00;37.00;;;;;;;11.32;79.50;99698.05;476978;1190;192806;-64
2021/10/04 23:22:02;;;;;;;46.70;36.50;;;;;;;11.31;79.60;99697.26;463862;1190;142135;-60
2021/10/04 23:32:08;;;;;;;37.80;29.20;;;;;;;11.25;79.76;99701.34;477610;1190;143062;-60
2021/10/04 23:42:14;;;;;;;49.60;36.90;;;;;;;11.09;79.37;99696.91;465134;1190;141488;-60
2021/10/04 23:52:20;;;;;;;39.40;32.20;;;;;;;11.11;79.63;99689.63;464669;1190;141604;-58
